首页
METAR-TAF:

METAR-TAF

机场 :

巴爾的摩, 马里兰州, 美国

纬度: 39-20N, 经度: 076-25W, 海拔: 7米

当前天气观测

该预报发布于32分钟前的10:54 UTC
风速17节,风向西,有时为23节阵风
温度 4°C
湿度 70%
气压 1003 hPa
能見度: 16.1公里
散云层高于4300英尺

METAR: KMTN 271054Z 26017G23KT 10SM SCT043 04/M01 A2962

时间: 06:26 (11:26 UTC)

预报

该预报发布于6小时和4分钟前的05:22 UTC
预报有效从27日的 06点(UTC)到 28日的 06点(UTC)
风速12节,风向西,有时为21节阵风
能見度: 8.0公里
散云层高于800英尺
阴天层高于2500英尺
小阵雨
从 27日的 0700点(UTC)
风速13节,风向西,有时为20节阵风
能見度: 10公里
散云层高于2000英尺
多云层高于5000英尺
从 27日的 1200点(UTC)
风速12节,风向西,有时为24节阵风
能見度: 10公里
少量云层高于20000英尺
少量云层高于25000英尺
从 27日的 2200点(UTC)
风速18节,风向西,有时为31节阵风
能見度: 10公里
少量云层高于5000英尺
从 28日的 0500点(UTC)
风速11节,风向西,有时为20节阵风
能見度: 10公里
少量云层高于25000英尺

TAF: KMTN 270522Z 2706/2806 26012G21KT 5SM -SHRA SCT008 OVC025 FM270700 26013G20KT P6SM SCT020 BKN050 FM271200 27012G24KT P6SM FEW200 FEW250 FM272200 28018G31KT P6SM FEW050 FM280500 27011G20KT P6SM FEW250 AMD NOT SKED

超过4000个机场的气象观测和天气预报(METAR&TAF报告)。

可查询的气象台以黄色和红色小点在地图上表示。

将鼠标移到小点上方,可查看气象台名称。

然后点击查看天气观测和预报。

如需切换地图:点击带黑十字的绿色按钮放大地图;点击带横线的绿色按钮缩小地图;或者点击绿色箭头查看邻近地区的地图。


METAR-TAF: